Time;durP1;ratioP1;P1;durP2;ratioP2;P2;SDS_P1;SDS_P2;PMS_P1;PMS_P2;Temp;Humidity;BMP_temperature;BMP_pressure;BME280_temperature;BME280_humidity;BME280_pressure;Samples;Min_cycle;Max_cycle;Signal;HPM_P1;HPM_P2
2021/05/02 00:01:05;;;;;;;9.82;8.95;;;8.00;99.90;;;;;;5094284;28;20245;-47
2021/05/02 00:03:33;;;;;;;9.20;8.40;;;8.00;99.90;;;;;;5094493;28;20268;-46
2021/05/02 00:06:00;;;;;;;9.77;8.88;;;8.00;99.90;;;;;;5094098;28;20724;-43
2021/05/02 00:08:27;;;;;;;9.25;8.02;;;8.00;99.90;;;;;;5094301;28;20321;-44
2021/05/02 00:10:55;;;;;;;8.85;8.15;;;8.00;99.90;;;;;;5094462;28;20217;-46
2021/05/02 00:13:22;;;;;;;9.35;8.45;;;8.00;99.90;;;;;;5094316;28;20583;-44
2021/05/02 00:15:50;;;;;;;8.48;7.65;;;8.00;99.90;;;;;;5094062;28;20293;-47
2021/05/02 00:18:18;;;;;;;8.90;8.10;;;8.00;99.90;;;;;;5094122;28;20230;-49
2021/05/02 00:20:46;;;;;;;9.55;8.55;;;8.00;99.90;;;;;;5093892;28;20306;-46
2021/05/02 00:23:13;;;;;;;9.15;8.07;;;7.90;99.90;;;;;;5094152;28;20221;-46
2021/05/02 00:25:40;;;;;;;8.40;7.60;;;7.90;99.90;;;;;;5094108;28;20210;-48
2021/05/02 00:28:09;;;;;;;9.00;8.10;;;7.90;99.90;;;;;;5093902;28;20593;-46
2021/05/02 00:30:36;;;;;;;7.00;6.40;;;7.90;99.90;;;;;;5093756;28;20228;-46
2021/05/02 00:33:04;;;;;;;8.20;7.50;;;7.90;99.90;;;;;;5093790;28;20298;-45
2021/05/02 00:35:32;;;;;;;6.63;6.03;;;7.90;99.90;;;;;;5093907;28;20221;-46
2021/05/02 00:37:59;;;;;;;7.63;6.47;;;7.90;99.90;;;;;;5093660;28;20665;-47
2021/05/02 00:40:34;;;;;;;6.68;6.05;;;7.90;99.90;;;;;;5093637;28;20704;-46
2021/05/02 00:43:05;;;;;;;6.15;5.63;;;7.90;99.90;;;;;;5093733;28;20715;-44
2021/05/02 00:45:41;;;;;;;6.30;5.78;;;7.90;99.90;;;;;;5093459;28;20328;-46
2021/05/02 00:48:17;;;;;;;6.57;6.07;;;7.90;99.90;;;;;;5093743;28;20226;-46
2021/05/02 00:50:50;;;;;;;5.78;5.18;;;8.00;99.90;;;;;;5093503;28;20259;-45
2021/05/02 00:53:27;;;;;;;5.53;5.05;;;8.00;99.90;;;;;;5093763;28;20297;-46
2021/05/02 00:55:57;;;;;;;7.32;6.57;;;7.90;99.90;;;;;;5093301;28;20289;-45
2021/05/02 00:58:40;;;;;;;7.82;7.03;;;7.90;99.90;;;;;;5093464;28;20673;-45
2021/05/02 01:01:09;;;;;;;6.75;6.15;;;7.80;99.90;;;;;;5093501;28;20285;-46
2021/05/02 01:03:41;;;;;;;6.85;6.25;;;7.90;99.90;;;;;;5093573;28;20237;-49
2021/05/02 01:06:13;;;;;;;7.10;6.50;;;7.80;99.90;;;;;;5092744;28;20317;-46
2021/05/02 01:08:42;;;;;;;5.50;5.00;;;7.90;99.90;;;;;;5093136;28;20325;-48
2021/05/02 01:11:12;;;;;;;5.72;5.10;;;7.90;99.90;;;;;;5093231;28;20260;-45
2021/05/02 01:13:51;;;;;;;5.13;4.63;;;7.90;99.90;;;;;;5093055;28;20297;-48
2021/05/02 01:16:20;;;;;;;7.00;5.75;;;7.90;99.90;;;;;;5093018;28;20211;-47
2021/05/02 01:18:49;;;;;;;6.18;5.57;;;7.90;99.90;;;;;;5092802;28;20209;-46
2021/05/02 01:21:18;;;;;;;6.40;5.80;;;7.90;99.90;;;;;;5092821;28;20302;-47
2021/05/02 01:23:47;;;;;;;6.18;5.30;;;7.90;99.90;;;;;;5092797;28;20253;-49
2021/05/02 01:26:18;;;;;;;5.15;4.75;;;7.90;99.90;;;;;;5092842;28;20279;-51
2021/05/02 01:28:45;;;;;;;5.43;4.93;;;7.80;99.90;;;;;;5092600;28;20676;-46
2021/05/02 01:31:12;;;;;;;4.85;4.45;;;7.90;99.90;;;;;;5092655;28;20286;-45
2021/05/02 01:33:40;;;;;;;6.82;6.22;;;7.90;99.90;;;;;;5092883;28;20203;-48
2021/05/02 01:36:08;;;;;;;6.10;5.53;;;7.80;99.90;;;;;;5092466;28;20233;-46
2021/05/02 01:38:36;;;;;;;5.45;4.95;;;7.80;99.90;;;;;;5092604;28;20261;-46
2021/05/02 01:41:03;;;;;;;6.00;5.25;;;7.90;99.90;;;;;;5092529;28;20215;-49
2021/05/02 01:43:30;;;;;;;6.82;6.22;;;7.80;99.90;;;;;;5092511;28;20235;-46
2021/05/02 01:45:57;;;;;;;5.22;4.80;;;7.80;99.90;;;;;;5092510;28;20681;-44
2021/05/02 01:48:27;;;;;;;5.65;5.15;;;7.80;99.90;;;;;;5092302;28;20257;-46
2021/05/02 01:50:59;;;;;;;5.40;4.95;;;7.90;99.90;;;;;;5092271;28;20681;-47
2021/05/02 01:53:28;;;;;;;6.18;5.65;;;7.80;99.90;;;;;;5092786;28;20766;-46
2021/05/02 01:55:56;;;;;;;5.60;5.05;;;7.80;99.90;;;;;;5092589;28;20296;-48
2021/05/02 01:58:24;;;;;;;5.13;4.63;;;7.80;99.90;;;;;;5092042;28;20210;-46
2021/05/02 02:00:54;;;;;;;4.60;4.15;;;7.80;99.90;;;;;;5092108;28;20565;-49
2021/05/02 02:03:22;;;;;;;5.32;4.82;;;7.80;99.90;;;;;;5092133;28;20756;-44
2021/05/02 02:05:50;;;;;;;5.28;4.88;;;7.80;99.90;;;;;;5092528;28;20329;-46
2021/05/02 02:08:18;;;;;;;6.13;5.60;;;7.80;99.90;;;;;;5092333;28;20306;-48
2021/05/02 02:10:47;;;;;;;6.65;6.05;;;7.80;99.90;;;;;;5092338;28;20741;-47
2021/05/02 02:13:16;;;;;;;7.32;6.47;;;7.80;99.90;;;;;;5092367;28;20293;-47
2021/05/02 02:15:44;;;;;;;6.13;5.53;;;7.80;99.90;;;;;;5092413;28;20225;-49
2021/05/02 02:18:12;;;;;;;6.72;6.03;;;7.80;99.90;;;;;;5091737;28;20272;-54
2021/05/02 02:20:41;;;;;;;7.40;6.50;;;7.70;99.90;;;;;;5092336;28;20218;-52
2021/05/02 02:23:16;;;;;;;7.45;6.70;;;7.70;99.90;;;;;;5092265;28;20221;-54
2021/05/02 02:25:45;;;;;;;6.32;5.72;;;7.60;99.90;;;;;;5092429;28;20289;-49
2021/05/02 02:28:14;;;;;;;6.82;5.85;;;7.70;99.90;;;;;;5092481;28;20297;-51
2021/05/02 02:30:45;;;;;;;5.68;5.18;;;7.60;99.90;;;;;;5092093;28;20202;-52
2021/05/02 02:33:12;;;;;;;6.18;5.57;;;7.60;99.90;;;;;;5092249;28;20224;-52
2021/05/02 02:35:51;;;;;;;6.07;5.47;;;7.60;99.90;;;;;;5092213;28;20211;-54
2021/05/02 02:38:20;;;;;;;6.45;5.85;;;7.60;99.90;;;;;;5092360;28;20293;-51
2021/05/02 02:40:49;;;;;;;6.15;5.55;;;7.50;99.90;;;;;;5091980;28;20760;-51
2021/05/02 02:43:22;;;;;;;6.18;5.57;;;7.60;99.90;;;;;;5092189;28;20203;-51
2021/05/02 02:45:53;;;;;;;6.57;5.97;;;7.50;99.90;;;;;;5092265;28;20242;-52
2021/05/02 02:48:22;;;;;;;6.78;6.18;;;7.50;99.90;;;;;;5091910;28;20615;-45
2021/05/02 02:50:51;;;;;;;6.57;5.95;;;7.60;99.90;;;;;;5092183;28;20225;-46
2021/05/02 02:53:21;;;;;;;7.20;6.50;;;7.60;99.90;;;;;;5092173;28;20230;-45
2021/05/02 02:55:58;;;;;;;7.40;6.70;;;7.60;99.90;;;;;;5091966;28;20297;-45
2021/05/02 02:58:30;;;;;;;7.55;6.80;;;7.60;99.90;;;;;;5091808;28;20293;-47
2021/05/02 03:00:58;;;;;;;7.22;6.53;;;7.60;99.90;;;;;;5091854;28;20434;-48
2021/05/02 03:03:27;;;;;;;7.25;6.55;;;7.50;99.90;;;;;;5091767;28;20246;-48
2021/05/02 03:05:55;;;;;;;7.30;6.68;;;7.50;99.90;;;;;;5091602;28;20743;-46
2021/05/02 03:08:24;;;;;;;6.38;5.78;;;7.50;99.90;;;;;;5091826;28;20626;-46
2021/05/02 03:10:51;;;;;;;6.45;5.60;;;7.40;99.90;;;;;;5091775;28;20561;-46
2021/05/02 03:13:19;;;;;;;7.20;6.47;;;7.40;99.90;;;;;;5091683;28;20293;-49
2021/05/02 03:15:47;;;;;;;6.53;5.93;;;7.40;99.90;;;;;;5091825;28;20289;-45
2021/05/02 03:18:22;;;;;;;8.68;7.70;;;7.40;99.90;;;;;;5091804;28;20211;-44
2021/05/02 03:20:56;;;;;;;9.45;8.15;;;7.40;99.90;;;;;;5091964;28;20716;-43
2021/05/02 03:23:30;;;;;;;9.40;8.50;;;7.40;99.90;;;;;;5091531;28;20242;-47
2021/05/02 03:26:01;;;;;;;9.88;8.98;;;7.30;99.90;;;;;;5091491;28;20289;-46
2021/05/02 03:28:33;;;;;;;10.68;9.65;;;7.30;99.90;;;;;;5092043;28;20242;-46
2021/05/02 03:31:02;;;;;;;9.23;8.32;;;7.30;99.90;;;;;;5095576;28;20692;-43
2021/05/02 03:33:34;;;;;;;10.93;9.80;;;7.20;99.90;;;;;;5095438;28;20207;-46
2021/05/02 03:36:08;;;;;;;10.20;9.18;;;7.20;99.90;;;;;;5095337;28;20314;-44
2021/05/02 03:38:42;;;;;;;9.35;8.45;;;7.10;99.90;;;;;;5095571;28;20612;-44
2021/05/02 03:41:09;;;;;;;10.93;9.93;;;7.10;99.90;;;;;;5095359;28;20213;-45
2021/05/02 03:43:37;;;;;;;11.07;10.02;;;7.10;99.90;;;;;;5095199;28;20209;-44
2021/05/02 03:46:04;;;;;;;10.57;9.57;;;7.00;99.90;;;;;;5095188;28;20301;-45
2021/05/02 03:48:32;;;;;;;10.57;9.57;;;6.90;99.90;;;;;;5095113;28;20219;-44
2021/05/02 03:51:00;;;;;;;12.40;10.60;;;6.90;99.90;;;;;;5095234;28;20664;-46
2021/05/02 03:53:27;;;;;;;13.88;12.50;;;6.90;99.90;;;;;;5094976;28;20207;-45
2021/05/02 03:55:54;;;;;;;11.25;10.15;;;6.90;99.90;;;;;;5095052;28;20719;-44
2021/05/02 03:58:21;;;;;;;10.57;9.48;;;6.90;99.90;;;;;;5094989;28;20297;-46
2021/05/02 04:00:48;;;;;;;10.52;9.52;;;6.90;99.90;;;;;;5094818;28;20256;-46
2021/05/02 04:03:15;;;;;;;10.07;8.90;;;6.80;99.90;;;;;;5094347;28;20661;-46
2021/05/02 04:05:43;;;;;;;10.43;9.43;;;6.80;99.90;;;;;;5094261;28;20238;-42
2021/05/02 04:08:10;;;;;;;9.90;8.98;;;6.80;99.90;;;;;;5094283;28;20215;-45
2021/05/02 04:10:37;;;;;;;10.35;9.25;;;6.80;99.90;;;;;;5094753;28;20233;-44
2021/05/02 04:13:04;;;;;;;11.07;9.63;;;6.80;99.90;;;;;;5094612;28;20302;-46
2021/05/02 04:15:31;;;;;;;11.40;10.30;;;6.80;99.90;;;;;;5094499;28;20230;-46
2021/05/02 04:17:58;;;;;;;10.18;9.18;;;6.80;99.90;;;;;;5094375;28;20211;-47
2021/05/02 04:20:25;;;;;;;11.20;10.20;;;6.90;99.90;;;;;;5094614;28;20618;-47
2021/05/02 04:22:53;;;;;;;10.98;9.98;;;6.90;99.90;;;;;;5094410;28;20768;-46
2021/05/02 04:25:20;;;;;;;10.65;9.60;;;6.90;99.90;;;;;;5094526;28;20206;-49
2021/05/02 04:27:47;;;;;;;11.13;10.05;;;6.90;99.90;;;;;;5094305;28;20332;-48
2021/05/02 04:30:15;;;;;;;11.18;10.05;;;6.90;99.90;;;;;;5094210;28;20234;-50
2021/05/02 04:32:41;;;;;;;11.00;9.90;;;6.90;99.90;;;;;;5094170;28;20705;-49
2021/05/02 04:35:09;;;;;;;10.77;9.68;;;6.90;99.90;;;;;;5094393;28;20207;-49
2021/05/02 04:37:36;;;;;;;10.35;9.35;;;6.90;99.90;;;;;;5094210;28;20207;-49
2021/05/02 04:40:05;;;;;;;10.05;9.05;;;6.90;99.90;;;;;;5093496;28;20298;-49
2021/05/02 04:42:32;;;;;;;10.43;9.43;;;6.90;99.90;;;;;;5093859;28;20238;-47
2021/05/02 04:44:59;;;;;;;9.25;8.32;;;6.90;99.90;;;;;;5093900;28;20206;-46
2021/05/02 04:47:27;;;;;;;9.43;8.63;;;6.90;99.90;;;;;;5093891;28;20680;-51
2021/05/02 04:49:54;;;;;;;11.50;10.40;;;6.90;99.90;;;;;;5093958;28;20314;-47
2021/05/02 04:52:20;;;;;;;9.85;8.85;;;6.90;99.90;;;;;;5093877;28;20295;-48
2021/05/02 04:54:47;;;;;;;9.07;8.20;;;6.90;99.90;;;;;;5093736;28;20295;-42
2021/05/02 04:57:15;;;;;;;10.15;9.15;;;6.80;99.90;;;;;;5093698;28;20213;-46
2021/05/02 04:59:42;;;;;;;9.50;8.55;;;6.80;99.90;;;;;;5093554;28;20250;-46
2021/05/02 05:02:09;;;;;;;7.60;6.90;;;6.80;99.90;;;;;;5093863;28;20616;-43
2021/05/02 05:04:36;;;;;;;10.48;9.27;;;6.80;99.90;;;;;;5093481;28;20678;-50
2021/05/02 05:07:03;;;;;;;8.93;8.02;;;6.80;99.90;;;;;;5093563;28;20235;-46
2021/05/02 05:09:30;;;;;;;11.68;9.63;;;6.80;99.90;;;;;;5093768;28;20235;-46
2021/05/02 05:11:57;;;;;;;9.77;8.88;;;6.80;99.90;;;;;;5093472;28;20210;-44
2021/05/02 05:14:25;;;;;;;9.95;8.98;;;6.80;99.90;;;;;;5093356;28;20213;-47
2021/05/02 05:16:52;;;;;;;8.75;7.90;;;6.80;99.90;;;;;;5093420;28;20294;-47
2021/05/02 05:19:19;;;;;;;8.00;7.25;;;6.90;99.90;;;;;;5093434;28;20206;-46
2021/05/02 05:21:46;;;;;;;8.23;7.43;;;6.90;99.90;;;;;;5093327;28;20210;-49
2021/05/02 05:24:13;;;;;;;7.40;6.70;;;6.90;99.90;;;;;;5093235;28;20206;-48
2021/05/02 05:26:40;;;;;;;7.18;6.55;;;7.00;99.90;;;;;;5093186;28;20230;-52
2021/05/02 05:29:07;;;;;;;6.70;6.10;;;7.00;99.90;;;;;;5092870;28;20628;-49
2021/05/02 05:31:42;;;;;;;7.88;7.18;;;7.00;99.90;;;;;;5093049;28;20710;-48
2021/05/02 05:34:09;;;;;;;8.25;7.28;;;7.00;99.90;;;;;;5093043;28;20217;-46
2021/05/02 05:36:36;;;;;;;7.90;7.15;;;7.10;99.90;;;;;;5092967;28;20230;-49
2021/05/02 05:39:04;;;;;;;9.88;7.32;;;7.10;99.90;;;;;;5092843;28;20242;-48
2021/05/02 05:41:31;;;;;;;8.07;7.30;;;7.10;99.90;;;;;;5092889;28;20293;-48
2021/05/02 05:43:58;;;;;;;8.70;7.63;;;7.10;99.90;;;;;;5092860;28;20260;-48
2021/05/02 05:46:25;;;;;;;9.05;8.15;;;7.10;99.90;;;;;;5092785;28;20274;-47
2021/05/02 05:48:53;;;;;;;10.23;8.55;;;7.00;99.90;;;;;;5092594;28;20209;-46
2021/05/02 05:51:19;;;;;;;9.50;8.60;;;7.00;99.90;;;;;;5092568;28;20306;-48
2021/05/02 05:53:46;;;;;;;9.20;8.40;;;6.90;99.90;;;;;;5092294;28;20297;-47
2021/05/02 05:56:13;;;;;;;10.48;9.40;;;6.90;99.90;;;;;;5092537;28;20203;-46
2021/05/02 05:58:40;;;;;;;11.70;10.23;;;7.00;99.90;;;;;;5092950;28;20217;-50
2021/05/02 06:01:07;;;;;;;10.10;9.10;;;7.00;99.90;;;;;;5092287;28;20719;-47
2021/05/02 06:03:34;;;;;;;11.98;10.77;;;7.10;99.90;;;;;;5092517;28;20263;-48
2021/05/02 06:06:02;;;;;;;12.05;10.30;;;7.10;99.90;;;;;;5092161;28;20238;-45
2021/05/02 06:08:29;;;;;;;12.63;11.32;;;7.10;99.90;;;;;;5092224;28;20252;-45
2021/05/02 06:10:56;;;;;;;13.38;12.07;;;7.10;99.90;;;;;;5092260;28;20271;-48
2021/05/02 06:13:23;;;;;;;14.18;12.80;;;7.20;99.90;;;;;;5092444;28;20299;-44
2021/05/02 06:15:50;;;;;;;14.57;13.07;;;7.30;99.90;;;;;;5092056;28;20711;-46
2021/05/02 06:18:17;;;;;;;15.80;14.15;;;7.30;99.90;;;;;;5092132;28;20291;-45
2021/05/02 06:20:43;;;;;;;14.98;13.45;;;7.30;99.90;;;;;;5091939;28;20245;-43
2021/05/02 06:23:11;;;;;;;15.43;13.93;;;7.40;99.90;;;;;;5092268;28;20289;-44
2021/05/02 06:25:38;;;;;;;15.55;13.98;;;7.40;99.90;;;;;;5092527;28;20202;-43
2021/05/02 06:28:05;;;;;;;16.13;14.45;;;7.40;99.90;;;;;;5092268;28;20580;-42
2021/05/02 06:30:32;;;;;;;15.43;13.68;;;7.40;99.90;;;;;;5091909;28;20774;-44
2021/05/02 06:33:00;;;;;;;14.88;13.45;;;7.30;99.90;;;;;;5091869;28;20732;-47
2021/05/02 06:35:28;;;;;;;15.57;13.98;;;7.20;99.90;;;;;;5091896;28;20217;-44
2021/05/02 06:37:55;;;;;;;16.08;14.57;;;7.20;99.90;;;;;;5092004;28;20203;-44
2021/05/02 06:40:22;;;;;;;15.30;13.73;;;7.10;99.90;;;;;;5092022;28;20198;-42
2021/05/02 06:42:49;;;;;;;16.27;14.60;;;7.10;99.90;;;;;;5091924;28;20230;-42
2021/05/02 06:45:18;;;;;;;16.48;14.73;;;7.10;99.90;;;;;;5092056;28;20663;-43
2021/05/02 06:47:45;;;;;;;15.10;13.68;;;7.20;99.90;;;;;;5091897;28;20688;-43
2021/05/02 06:50:13;;;;;;;15.05;13.63;;;7.30;99.90;;;;;;5091868;28;20246;-42
2021/05/02 06:52:41;;;;;;;13.90;12.60;;;7.40;99.90;;;;;;5091923;28;20216;-43
2021/05/02 06:55:09;;;;;;;13.63;12.35;;;7.50;99.90;;;;;;5091540;28;20688;-43
2021/05/02 06:57:37;;;;;;;15.07;13.57;;;7.60;99.90;;;;;;5091396;28;20206;-45
2021/05/02 07:00:05;;;;;;;14.05;12.57;;;7.60;99.90;;;;;;5091465;28;20202;-44
2021/05/02 07:02:32;;;;;;;16.33;12.77;;;7.60;99.90;;;;;;5091411;28;20318;-44
2021/05/02 07:04:59;;;;;;;15.60;14.00;;;7.60;99.90;;;;;;5094732;28;20381;-48
2021/05/02 07:07:27;;;;;;;15.77;14.27;;;7.60;99.90;;;;;;5095683;28;20297;-45
2021/05/02 07:09:54;;;;;;;16.95;15.27;;;7.50;99.90;;;;;;5095466;28;20330;-47
2021/05/02 07:12:21;;;;;;;16.08;14.48;;;7.50;99.90;;;;;;5095525;28;20776;-47
2021/05/02 07:14:48;;;;;;;16.90;15.27;;;7.50;99.90;;;;;;5095359;28;20579;-47
2021/05/02 07:17:16;;;;;;;17.17;15.45;;;7.40;99.90;;;;;;5095390;28;20221;-46
2021/05/02 07:19:43;;;;;;;17.70;16.00;;;7.30;99.90;;;;;;5095321;28;20349;-47
2021/05/02 07:22:10;;;;;;;17.73;16.02;;;7.10;99.90;;;;;;5095432;28;20313;-47
2021/05/02 07:24:37;;;;;;;18.20;16.50;;;7.10;99.90;;;;;;5095410;28;20242;-45
2021/05/02 07:27:05;;;;;;;19.95;18.02;;;7.00;99.90;;;;;;5095055;28;20207;-48
2021/05/02 07:29:33;;;;;;;18.60;16.83;;;7.10;99.90;;;;;;5094937;28;20314;-51
2021/05/02 07:32:00;;;;;;;19.33;17.52;;;7.10;99.90;;;;;;5095262;28;20298;-50
2021/05/02 07:34:27;;;;;;;21.23;19.10;;;7.10;99.90;;;;;;5095000;28;20661;-50
2021/05/02 07:36:54;;;;;;;18.90;17.20;;;7.20;99.90;;;;;;5095131;28;20302;-47
2021/05/02 07:39:21;;;;;;;20.73;18.83;;;7.30;99.90;;;;;;5094908;28;20266;-52
2021/05/02 07:41:48;;;;;;;19.83;17.98;;;7.40;99.90;;;;;;5094873;28;20683;-51
2021/05/02 07:44:15;;;;;;;19.67;17.88;;;7.40;99.90;;;;;;5094906;28;20303;-50
2021/05/02 07:46:45;;;;;;;19.73;17.88;;;7.50;99.90;;;;;;5094951;28;20307;-46
2021/05/02 07:49:13;;;;;;;20.60;18.80;;;7.50;99.90;;;;;;5094922;28;20656;-46
2021/05/02 07:51:40;;;;;;;19.90;18.10;;;7.40;99.90;;;;;;5094900;28;20392;-49
2021/05/02 07:54:07;;;;;;;20.70;18.80;;;7.30;99.90;;;;;;5094781;28;20206;-47
2021/05/02 07:56:34;;;;;;;18.92;17.13;;;7.40;99.90;;;;;;5094780;28;20265;-44
2021/05/02 07:59:01;;;;;;;19.50;17.70;;;7.40;99.90;;;;;;5094938;28;20264;-49
2021/05/02 08:01:28;;;;;;;19.85;17.95;;;7.50;99.90;;;;;;5094623;28;20246;-48
2021/05/02 08:03:56;;;;;;;18.65;16.90;;;7.60;99.90;;;;;;5094665;28;20214;-49
2021/05/02 08:06:24;;;;;;;19.20;17.42;;;7.70;99.90;;;;;;5094439;28;20242;-46
2021/05/02 08:08:52;;;;;;;19.90;18.10;;;7.70;99.90;;;;;;5094630;28;20317;-46
2021/05/02 08:11:19;;;;;;;20.17;18.35;;;7.70;99.90;;;;;;5094602;28;20751;-44
2021/05/02 08:13:46;;;;;;;20.17;17.92;;;7.80;99.90;;;;;;5094742;28;20313;-44
2021/05/02 08:16:14;;;;;;;18.67;16.80;;;7.90;99.90;;;;;;5093233;28;20756;-48
2021/05/02 08:18:41;;;;;;;19.05;17.25;;;8.00;99.90;;;;;;5094513;28;20324;-48
2021/05/02 08:21:10;;;;;;;18.35;16.55;;;8.10;99.90;;;;;;5093311;28;20211;-44
2021/05/02 08:23:38;;;;;;;19.35;17.65;;;8.20;99.90;;;;;;5093748;28;20211;-43
2021/05/02 08:26:06;;;;;;;19.73;17.40;;;8.30;99.90;;;;;;5093699;28;20603;-44
2021/05/02 08:28:36;;;;;;;18.42;16.67;;;8.40;99.90;;;;;;5094064;28;20252;-44
2021/05/02 08:31:09;;;;;;;18.80;17.10;;;8.40;99.90;;;;;;5094088;28;20222;-44
2021/05/02 08:33:36;;;;;;;16.30;14.80;;;8.50;99.90;;;;;;5094047;28;20570;-44
2021/05/02 08:36:03;;;;;;;18.05;16.40;;;8.50;99.90;;;;;;5093867;28;20206;-43
2021/05/02 08:38:32;;;;;;;16.70;15.10;;;8.40;99.90;;;;;;5109398;28;20256;-44
2021/05/02 08:41:00;;;;;;;17.50;15.73;;;8.30;99.90;;;;;;5114410;28;20252;-44
2021/05/02 08:43:28;;;;;;;15.52;14.13;;;8.30;99.90;;;;;;5114195;27;20604;-45
2021/05/02 08:45:55;;;;;;;15.68;14.27;;;8.30;99.90;;;;;;5114194;28;20252;-43
2021/05/02 08:48:24;;;;;;;16.70;15.20;;;8.40;99.90;;;;;;5114233;28;20278;-43
2021/05/02 08:50:52;;;;;;;15.27;13.95;;;8.40;99.90;;;;;;5113871;28;20310;-44
2021/05/02 08:53:19;;;;;;;17.40;15.88;;;8.30;99.90;;;;;;5114207;28;20289;-43
2021/05/02 08:55:47;;;;;;;18.45;16.73;;;8.40;99.90;;;;;;5114133;28;20209;-43
2021/05/02 08:58:15;;;;;;;18.60;16.85;;;8.40;99.90;;;;;;5113687;28;20210;-45
2021/05/02 09:00:42;;;;;;;17.50;16.02;;;8.40;99.90;;;;;;5113754;28;20198;-47
2021/05/02 09:03:10;;;;;;;17.60;16.00;;;8.40;99.90;;;;;;5113621;28;20367;-45
2021/05/02 09:05:45;;;;;;;18.88;17.17;;;8.40;99.90;;;;;;5113328;28;20243;-47
2021/05/02 09:08:30;;;;;;;18.73;17.02;;;8.50;99.90;;;;;;5113333;28;20214;-45
2021/05/02 09:10:57;;;;;;;17.83;16.23;;;8.60;99.90;;;;;;5109984;28;20257;-44
2021/05/02 09:13:26;;;;;;;18.90;17.20;;;8.70;99.90;;;;;;5113350;28;20210;-45
2021/05/02 09:15:57;;;;;;;19.85;18.08;;;8.90;99.90;;;;;;5113179;28;20202;-46
2021/05/02 09:18:38;;;;;;;19.35;17.55;;;9.30;99.90;;;;;;5113228;28;20202;-45
2021/05/02 09:21:07;;;;;;;19.55;17.67;;;9.50;99.90;;;;;;5113099;28;20600;-43
2021/05/02 09:23:37;;;;;;;18.02;16.35;;;9.60;99.90;;;;;;5113213;28;20248;-45
2021/05/02 09:26:05;;;;;;;18.05;16.45;;;9.60;99.90;;;;;;5112767;28;20633;-45
2021/05/02 09:28:45;;;;;;;18.20;16.50;;;9.50;99.90;;;;;;5113071;28;20259;-49
2021/05/02 09:31:14;;;;;;;19.13;17.35;;;9.40;99.90;;;;;;5113204;28;20330;-45
2021/05/02 09:33:41;;;;;;;19.02;17.25;;;9.50;99.90;;;;;;5113152;28;20293;-46
2021/05/02 09:36:09;;;;;;;19.02;17.42;;;9.50;99.90;;;;;;5113189;28;20252;-45
2021/05/02 09:38:38;;;;;;;19.58;17.25;;;9.60;99.90;;;;;;5113139;28;20210;-44
2021/05/02 09:41:06;;;;;;;19.75;17.85;;;9.70;99.90;;;;;;5112914;28;20302;-49
2021/05/02 09:43:45;;;;;;;19.42;17.65;;;9.80;99.90;;;;;;5112219;28;20289;-44
2021/05/02 09:46:27;;;;;;;19.80;18.05;;;10.10;99.90;;;;;;5113112;28;20292;-48
2021/05/02 09:48:57;;;;;;;21.67;17.90;;;10.10;99.90;;;;;;5112860;28;20229;-45
2021/05/02 09:51:26;;;;;;;22.55;20.40;;;10.10;99.90;;;;;;5112555;28;20713;-44
2021/05/02 09:54:10;;;;;;;19.75;17.95;;;10.20;99.90;;;;;;5112897;28;20684;-45
2021/05/02 09:56:42;;;;;;;19.77;17.95;;;10.50;99.90;;;;;;5113064;28;20700;-44
2021/05/02 09:59:28;;;;;;;20.13;18.33;;;10.80;99.90;;;;;;5112503;27;20246;-44
2021/05/02 10:02:22;;;;;;;20.80;18.95;;;11.20;99.90;;;;;;5112773;28;20551;-45
2021/05/02 10:04:52;;;;;;;19.48;17.67;;;11.40;99.90;;;;;;5112562;28;20292;-48
2021/05/02 10:07:21;;;;;;;21.48;19.48;;;11.50;99.90;;;;;;5112284;28;20259;-45
2021/05/02 10:09:49;;;;;;;21.88;19.25;;;11.40;99.90;;;;;;5112379;28;20226;-46
2021/05/02 10:12:17;;;;;;;20.88;18.85;;;11.30;99.90;;;;;;5112368;28;20293;-43
2021/05/02 10:14:46;;;;;;;21.15;19.30;;;11.20;99.90;;;;;;5112260;28;20262;-48
2021/05/02 10:17:13;;;;;;;22.40;20.45;;;11.30;99.90;;;;;;5111631;28;20297;-43
2021/05/02 10:19:43;;;;;;;22.10;20.10;;;11.40;99.90;;;;;;5112062;28;20222;-46
2021/05/02 10:22:11;;;;;;;21.13;19.23;;;11.40;99.90;;;;;;5112052;28;20298;-46
2021/05/02 10:24:38;;;;;;;20.02;18.40;;;11.50;99.90;;;;;;5111973;28;20296;-49
2021/05/02 10:27:10;;;;;;;18.25;16.55;;;11.40;99.90;;;;;;5112332;28;20612;-45
2021/05/02 10:29:40;;;;;;;18.80;17.17;;;11.30;99.90;;;;;;5112211;28;20213;-46
2021/05/02 10:32:10;;;;;;;18.02;16.45;;;11.20;99.90;;;;;;5112264;28;20301;-46
2021/05/02 10:34:40;;;;;;;18.98;17.17;;;11.10;99.90;;;;;;5112152;28;20206;-45
2021/05/02 10:37:27;;;;;;;21.77;19.67;;;11.10;99.90;;;;;;5111983;28;20753;-51
2021/05/02 10:39:55;;;;;;;23.58;21.40;;;11.20;99.90;;;;;;5111573;28;20244;-46
2021/05/02 10:42:35;;;;;;;22.67;20.58;;;11.20;99.90;;;;;;5111996;28;20205;-48
2021/05/02 10:45:41;;;;;;;23.88;21.77;;;11.00;99.90;;;;;;5111911;28;20208;-46
2021/05/02 10:48:46;;;;;;;24.77;22.60;;;10.90;99.90;;;;;;5112187;28;20224;-48
2021/05/02 10:51:28;;;;;;;24.88;22.83;;;10.70;99.90;;;;;;5111854;28;20776;-47
2021/05/02 10:54:16;;;;;;;28.27;25.75;;;10.50;99.90;;;;;;5111796;28;20586;-45
2021/05/02 10:56:54;;;;;;;25.42;23.05;;;10.30;99.90;;;;;;5111842;28;20295;-49
2021/05/02 10:59:24;;;;;;;26.15;23.65;;;10.20;99.90;;;;;;5111904;28;20214;-50
2021/05/02 11:01:51;;;;;;;25.98;23.38;;;10.20;99.90;;;;;;5111559;28;20383;-47
2021/05/02 11:04:20;;;;;;;26.40;24.05;;;10.20;99.90;;;;;;5111723;28;20218;-45
2021/05/02 11:06:55;;;;;;;24.65;22.15;;;10.30;99.90;;;;;;5111566;28;20256;-48
2021/05/02 11:09:30;;;;;;;24.80;22.60;;;10.50;99.90;;;;;;5111842;28;20248;-46
2021/05/02 11:11:58;;;;;;;26.58;24.23;;;10.60;99.90;;;;;;5111586;28;20312;-45
2021/05/02 11:14:36;;;;;;;23.83;21.77;;;10.70;99.90;;;;;;5111376;28;20210;-50
2021/05/02 11:17:27;;;;;;;24.30;22.13;;;10.60;99.90;;;;;;5112065;28;20288;-47
2021/05/02 11:19:58;;;;;;;25.25;22.95;;;10.60;99.90;;;;;;5111857;28;20206;-47
2021/05/02 11:22:26;;;;;;;27.33;24.70;;;10.70;99.90;;;;;;5111718;28;20337;-51
2021/05/02 11:24:56;;;;;;;25.92;23.35;;;10.90;99.90;;;;;;5111883;28;20275;-44
2021/05/02 11:30:35;;;;;;;26.88;24.30;;;11.50;99.90;;;;;;5111493;28;20308;-46
2021/05/02 11:33:19;;;;;;;24.70;22.40;;;11.70;99.90;;;;;;5111418;28;20217;-47
2021/05/02 11:35:58;;;;;;;26.00;23.40;;;11.90;99.90;;;;;;5111433;28;20210;-47
2021/05/02 11:38:46;;;;;;;25.95;23.50;;;12.20;99.90;;;;;;5111789;28;20205;-47
2021/05/02 11:41:14;;;;;;;27.35;24.95;;;12.30;99.90;;;;;;5111359;28;20248;-45
2021/05/02 11:43:43;;;;;;;25.10;22.90;;;12.50;99.80;;;;;;5111892;28;20293;-48
2021/05/02 11:46:19;;;;;;;25.63;23.52;;;12.60;99.40;;;;;;5111434;28;20209;-47
2021/05/02 11:48:50;;;;;;;25.73;23.38;;;12.70;99.30;;;;;;5111294;28;20209;-48
2021/05/02 11:51:22;;;;;;;25.67;23.45;;;12.90;99.00;;;;;;5114513;28;20317;-48
2021/05/02 11:53:51;;;;;;;25.77;23.48;;;13.20;98.50;;;;;;5115211;28;20301;-52
2021/05/02 11:56:24;;;;;;;25.75;23.55;;;13.30;97.40;;;;;;5114560;28;20300;-47
2021/05/02 11:58:52;;;;;;;26.90;24.52;;;13.30;97.50;;;;;;5115155;28;20305;-46
2021/05/02 12:01:24;;;;;;;23.83;21.60;;;13.20;97.40;;;;;;5114828;28;20209;-50
2021/05/02 12:03:52;;;;;;;25.65;23.23;;;13.30;97.20;;;;;;5115082;28;20260;-48
2021/05/02 12:06:22;;;;;;;24.77;22.48;;;13.20;97.50;;;;;;5115045;28;20321;-48
2021/05/02 12:08:49;;;;;;;24.55;22.38;;;13.20;96.40;;;;;;5115026;27;20339;-47
2021/05/02 12:11:16;;;;;;;23.10;21.13;;;13.10;96.60;;;;;;5115101;28;20265;-50
2021/05/02 12:13:48;;;;;;;24.58;22.38;;;13.10;96.40;;;;;;5114778;28;20244;-48
2021/05/02 12:16:16;;;;;;;24.73;22.45;;;13.30;96.20;;;;;;5114577;28;20245;-48
2021/05/02 12:18:52;;;;;;;24.20;21.98;;;13.50;95.50;;;;;;5114542;28;20653;-50
2021/05/02 12:21:25;;;;;;;23.05;21.05;;;13.50;95.30;;;;;;5114310;28;20262;-46
2021/05/02 12:23:54;;;;;;;23.55;21.35;;;13.60;95.00;;;;;;5114443;28;20300;-50
2021/05/02 12:26:21;;;;;;;23.38;21.35;;;13.70;94.70;;;;;;5114736;27;20232;-48
2021/05/02 12:28:50;;;;;;;21.30;19.38;;;13.70;94.70;;;;;;5114377;28;20242;-48
2021/05/02 12:31:18;;;;;;;22.05;20.13;;;13.70;94.40;;;;;;5114264;28;20704;-48
2021/05/02 12:33:45;;;;;;;22.15;20.20;;;13.50;94.00;;;;;;5114268;28;20210;-47
2021/05/02 12:36:14;;;;;;;23.13;21.10;;;13.50;94.20;;;;;;5114407;28;20209;-51
2021/05/02 12:38:42;;;;;;;21.95;20.05;;;13.60;94.30;;;;;;5114394;28;20210;-50
2021/05/02 12:41:19;;;;;;;21.77;19.88;;;13.70;94.20;;;;;;5114403;28;20251;-47
2021/05/02 12:43:49;;;;;;;21.15;19.25;;;14.00;93.80;;;;;;5114172;28;20209;-48
2021/05/02 12:46:35;;;;;;;20.67;18.92;;;14.20;93.40;;;;;;5114178;28;20579;-48
2021/05/02 12:49:13;;;;;;;33.72;30.75;;;14.30;91.80;;;;;;5114238;28;20288;-49
2021/05/02 12:51:42;;;;;;;22.58;20.60;;;14.40;92.40;;;;;;5113812;28;20261;-46
2021/05/02 12:54:12;;;;;;;20.35;18.55;;;14.60;92.10;;;;;;5114225;28;20297;-47
2021/05/02 12:56:40;;;;;;;21.27;18.98;;;14.70;91.50;;;;;;5114026;28;20243;-49
2021/05/02 12:59:27;;;;;;;18.33;16.60;;;14.60;91.30;;;;;;5113702;28;20301;-49